Tylertown, MS (39667)

6:43 AM CST on February 09, 2016 (GMT -0600)
Smithburg Rd | | Change Station
CLOSE
Current Station
Personal Weather Station
Location: Progress, MS
Elevation: 300 ft
Nearby Weather Stations
Active Advisory: Wind Advisory

Elev 300 ft 31.03 °N, 90.28 °W | Updated 2 minutes ago

Clear
Clear
31.2 °F
Feels Like 31 °F
N
0.0
Wind Variable Wind from South
Gusts 2.0 mph

Today
High -- | Low -- °F
--% Chance of Precip.
Yesterday
High -- | Low -- °F
Precip. -- in
Pressure 30.12 in
Visibility 10.0 miles
Clouds Clear
Windchill 31 °F
Dew Point 22 °F
Humidity 70%
Rainfall 0.00 in
Snow Depth Not available.
6:47 AM 5:42 PM
New Moon, 1% visible
METAR KMCB 091153Z AUTO 28004KT 10SM CLR 00/M07 A3011 RMK AO2 SLP197 T00001072 10028 21006 53012
Pressure 30.12 in
Visibility 10.0 miles
Clouds Clear
Windchill 31 °F
Dew Point 22 °F
Humidity 70%
Rainfall 0.00 in
Snow Depth Not available.
6:47 AM 5:42 PM
New Moon, 1% visible
METAR KMCB 091153Z AUTO 28004KT 10SM CLR 00/M07 A3011 RMK AO2 SLP197 T00001072 10028 21006 53012

10-Day Weather Forecast

Almanac

Astronomy

Feb. 09, 2016 Rise Set
Actual Time
Civil Twilight
Nautical Twilight
Astronomical Twilight
Moon
Length of Visible Light
Length of Day
Tomorrow will be .
, % of the Moon is Illuminated

Today's Extremes

State Highs State Lows

Community

WunderPhotos

Upload Photos

1,891,589 photos uploaded!

WunderBlog® & News

Nearby

Air Quality

  Air Quality AQ Index Pollutant
Not available.

Snow Depth

Station Depth Elevation

Earthquake Activity

City Distance Mag. Time & Date
Minimum magnitude displayed is 2.5.

Coastal Water Temperatures

Place Temperature

Stations

Nearby Weather Stations

Station Location Temp. Windchill Dew Point Humidity Wind Precip. Elev Updated Type
                   

Watches & Warnings

Wind Advisory
Issued: 3:23 AM CST Feb. 9, 2016 – National Weather Service

... Wind Advisory in effect from 9 am this morning to 5 PM CST
this afternoon...

The National Weather Service in New Orleans has issued a Wind
Advisory... which is in effect from 9 am this morning to 5 PM CST
this afternoon.

* Winds... 20 to 25 mph with frequent gusts of 35 and up to 40
mph.

* Impacts... windy conditions will lead to difficult driving
conditions especially along elevated roadways along with
east/west highways and interstates.

Precautionary/preparedness actions...

A Wind Advisory means that winds of 26 to 39 mph are expected.
Winds this strong can make driving difficult... especially for
high profile vehicles. Use extra caution.



Cab